sensor_id;sensor_type;location;lat;lon;timestamp;temperature;humidity
36924;DHT22;22841;50.252;18.688;2022-10-16T00:00:05;12.80;95.00
36924;DHT22;22841;50.252;18.688;2022-10-16T00:02:32;12.80;95.00
36924;DHT22;22841;50.252;18.688;2022-10-16T00:04:58;12.80;95.30
36924;DHT22;22841;50.252;18.688;2022-10-16T00:07:24;12.80;95.40
36924;DHT22;22841;50.252;18.688;2022-10-16T00:09:51;12.80;95.60
36924;DHT22;22841;50.252;18.688;2022-10-16T00:12:17;12.80;95.50
36924;DHT22;22841;50.252;18.688;2022-10-16T00:14:43;12.80;95.20
36924;DHT22;22841;50.252;18.688;2022-10-16T00:17:09;12.80;95.80
36924;DHT22;22841;50.252;18.688;2022-10-16T00:19:35;12.80;96.40
36924;DHT22;22841;50.252;18.688;2022-10-16T00:22:04;12.70;96.40
36924;DHT22;22841;50.252;18.688;2022-10-16T00:24:30;12.70;96.70
36924;DHT22;22841;50.252;18.688;2022-10-16T00:26:57;12.70;97.10
36924;DHT22;22841;50.252;18.688;2022-10-16T00:29:23;12.70;97.00
36924;DHT22;22841;50.252;18.688;2022-10-16T00:31:49;12.70;97.30
36924;DHT22;22841;50.252;18.688;2022-10-16T00:34:15;12.70;97.10
36924;DHT22;22841;50.252;18.688;2022-10-16T00:36:41;12.70;97.00
36924;DHT22;22841;50.252;18.688;2022-10-16T00:39:07;12.70;97.10
36924;DHT22;22841;50.252;18.688;2022-10-16T00:41:33;12.70;97.00
36924;DHT22;22841;50.252;18.688;2022-10-16T00:44:02;12.60;97.20
36924;DHT22;22841;50.252;18.688;2022-10-16T00:46:39;12.70;97.30
36924;DHT22;22841;50.252;18.688;2022-10-16T00:49:16;12.70;97.40
36924;DHT22;22841;50.252;18.688;2022-10-16T00:51:51;12.70;97.20
36924;DHT22;22841;50.252;18.688;2022-10-16T00:54:23;12.70;97.10
36924;DHT22;22841;50.252;18.688;2022-10-16T00:56:51;12.60;97.70
36924;DHT22;22841;50.252;18.688;2022-10-16T00:59:27;12.60;97.90
36924;DHT22;22841;50.252;18.688;2022-10-16T01:01:55;12.60;98.20
36924;DHT22;22841;50.252;18.688;2022-10-16T01:04:23;12.60;98.20
36924;DHT22;22841;50.252;18.688;2022-10-16T01:06:52;12.60;98.10
36924;DHT22;22841;50.252;18.688;2022-10-16T01:09:33;12.50;98.50
36924;DHT22;22841;50.252;18.688;2022-10-16T01:17:45;12.50;98.80
36924;DHT22;22841;50.252;18.688;2022-10-16T01:20:20;12.50;98.90
36924;DHT22;22841;50.252;18.688;2022-10-16T01:31:24;12.40;99.10
36924;DHT22;22841;50.252;18.688;2022-10-16T01:34:00;12.40;99.40
36924;DHT22;22841;50.252;18.688;2022-10-16T01:36:37;12.40;99.30
36924;DHT22;22841;50.252;18.688;2022-10-16T01:39:06;12.40;99.30
36924;DHT22;22841;50.252;18.688;2022-10-16T01:44:33;12.40;99.30
36924;DHT22;22841;50.252;18.688;2022-10-16T01:47:02;12.30;99.20
36924;DHT22;22841;50.252;18.688;2022-10-16T01:49:33;12.30;99.70
36924;DHT22;22841;50.252;18.688;2022-10-16T01:52:04;12.30;99.90
36924;DHT22;22841;50.252;18.688;2022-10-16T01:54:35;12.30;99.90
36924;DHT22;22841;50.252;18.688;2022-10-16T01:57:04;12.30;99.90
36924;DHT22;22841;50.252;18.688;2022-10-16T01:59:35;12.30;99.90
36924;DHT22;22841;50.252;18.688;2022-10-16T02:02:06;12.30;99.90
36924;DHT22;22841;50.252;18.688;2022-10-16T02:04:38;12.30;99.90
36924;DHT22;22841;50.252;18.688;2022-10-16T02:07:05;12.30;99.90
36924;DHT22;22841;50.252;18.688;2022-10-16T02:09:33;12.30;99.90
36924;DHT22;22841;50.252;18.688;2022-10-16T02:12:06;12.30;99.90
36924;DHT22;22841;50.252;18.688;2022-10-16T02:14:35;12.30;99.90
36924;DHT22;22841;50.252;18.688;2022-10-16T02:17:11;12.30;99.90
36924;DHT22;22841;50.252;18.688;2022-10-16T02:19:38;12.30;99.90
36924;DHT22;22841;50.252;18.688;2022-10-16T02:22:08;12.30;99.90
36924;DHT22;22841;50.252;18.688;2022-10-16T02:24:52;12.20;99.90
36924;DHT22;22841;50.252;18.688;2022-10-16T02:28:22;12.30;99.90
36924;DHT22;22841;50.252;18.688;2022-10-16T02:32:53;12.20;99.90
36924;DHT22;22841;50.252;18.688;2022-10-16T02:35:23;12.10;99.90
36924;DHT22;22841;50.252;18.688;2022-10-16T02:37:50;12.10;99.90
36924;DHT22;22841;50.252;18.688;2022-10-16T02:40:19;12.10;99.90
36924;DHT22;22841;50.252;18.688;2022-10-16T02:42:50;12.10;99.90
36924;DHT22;22841;50.252;18.688;2022-10-16T02:45:17;12.00;99.90
36924;DHT22;22841;50.252;18.688;2022-10-16T02:47:44;12.00;99.90
36924;DHT22;22841;50.252;18.688;2022-10-16T02:50:10;12.00;99.90
36924;DHT22;22841;50.252;18.688;2022-10-16T02:52:36;11.90;99.90
36924;DHT22;22841;50.252;18.688;2022-10-16T02:55:02;12.00;99.90
36924;DHT22;22841;50.252;18.688;2022-10-16T02:57:29;11.90;99.90
36924;DHT22;22841;50.252;18.688;2022-10-16T02:59:55;12.00;99.90
36924;DHT22;22841;50.252;18.688;2022-10-16T03:02:21;12.00;99.90
36924;DHT22;22841;50.252;18.688;2022-10-16T03:04:47;12.00;99.90
36924;DHT22;22841;50.252;18.688;2022-10-16T03:07:13;12.00;99.90
36924;DHT22;22841;50.252;18.688;2022-10-16T03:09:40;12.00;99.90
36924;DHT22;22841;50.252;18.688;2022-10-16T03:12:06;12.00;99.90
36924;DHT22;22841;50.252;18.688;2022-10-16T03:14:33;12.10;99.90
36924;DHT22;22841;50.252;18.688;2022-10-16T03:16:59;12.10;99.90
36924;DHT22;22841;50.252;18.688;2022-10-16T03:19:25;12.10;99.90
36924;DHT22;22841;50.252;18.688;2022-10-16T03:21:51;12.10;99.90
36924;DHT22;22841;50.252;18.688;2022-10-16T03:24:17;12.10;99.90
36924;DHT22;22841;50.252;18.688;2022-10-16T03:26:43;12.10;99.90
36924;DHT22;22841;50.252;18.688;2022-10-16T03:29:09;12.10;99.90
36924;DHT22;22841;50.252;18.688;2022-10-16T03:31:36;12.10;99.90
36924;DHT22;22841;50.252;18.688;2022-10-16T03:34:02;12.20;99.90
36924;DHT22;22841;50.252;18.688;2022-10-16T03:36:28;12.20;99.90
36924;DHT22;22841;50.252;18.688;2022-10-16T03:38:54;12.20;99.90
36924;DHT22;22841;50.252;18.688;2022-10-16T03:41:20;12.30;99.90
36924;DHT22;22841;50.252;18.688;2022-10-16T03:43:46;12.30;99.90
36924;DHT22;22841;50.252;18.688;2022-10-16T03:46:13;12.30;99.90
36924;DHT22;22841;50.252;18.688;2022-10-16T03:48:39;12.30;99.90
36924;DHT22;22841;50.252;18.688;2022-10-16T03:51:06;12.30;99.90
36924;DHT22;22841;50.252;18.688;2022-10-16T03:53:32;12.40;99.90
36924;DHT22;22841;50.252;18.688;2022-10-16T03:55:58;12.40;99.90
36924;DHT22;22841;50.252;18.688;2022-10-16T03:58:24;12.40;99.90
36924;DHT22;22841;50.252;18.688;2022-10-16T04:00:50;12.40;99.90
36924;DHT22;22841;50.252;18.688;2022-10-16T04:03:16;12.40;99.90
36924;DHT22;22841;50.252;18.688;2022-10-16T04:05:44;12.40;99.90
36924;DHT22;22841;50.252;18.688;2022-10-16T04:08:11;12.40;99.90
36924;DHT22;22841;50.252;18.688;2022-10-16T04:10:37;12.40;99.90
36924;DHT22;22841;50.252;18.688;2022-10-16T04:13:03;12.40;99.90
36924;DHT22;22841;50.252;18.688;2022-10-16T04:15:29;12.40;99.90
36924;DHT22;22841;50.252;18.688;2022-10-16T04:17:55;12.30;99.90
36924;DHT22;22841;50.252;18.688;2022-10-16T04:20:21;12.30;99.60
36924;DHT22;22841;50.252;18.688;2022-10-16T04:22:48;12.20;99.70
36924;DHT22;22841;50.252;18.688;2022-10-16T04:25:14;12.20;99.90
36924;DHT22;22841;50.252;18.688;2022-10-16T04:27:40;12.20;99.70
36924;DHT22;22841;50.252;18.688;2022-10-16T04:30:07;12.10;99.60
36924;DHT22;22841;50.252;18.688;2022-10-16T04:32:33;12.00;99.90
36924;DHT22;22841;50.252;18.688;2022-10-16T04:34:59;12.00;99.90
36924;DHT22;22841;50.252;18.688;2022-10-16T04:37:26;11.90;99.90
36924;DHT22;22841;50.252;18.688;2022-10-16T04:39:53;11.90;99.90
36924;DHT22;22841;50.252;18.688;2022-10-16T04:42:20;11.80;99.90
36924;DHT22;22841;50.252;18.688;2022-10-16T04:44:46;11.80;99.90
36924;DHT22;22841;50.252;18.688;2022-10-16T04:47:13;11.80;99.90
36924;DHT22;22841;50.252;18.688;2022-10-16T04:49:39;11.70;99.90
36924;DHT22;22841;50.252;18.688;2022-10-16T04:52:06;11.70;99.90
36924;DHT22;22841;50.252;18.688;2022-10-16T04:54:32;11.70;99.90
36924;DHT22;22841;50.252;18.688;2022-10-16T04:56:58;11.70;99.90
36924;DHT22;22841;50.252;18.688;2022-10-16T04:59:24;11.70;99.90
36924;DHT22;22841;50.252;18.688;2022-10-16T05:01:51;11.70;99.90
36924;DHT22;22841;50.252;18.688;2022-10-16T05:04:17;11.80;99.90
36924;DHT22;22841;50.252;18.688;2022-10-16T05:06:43;11.70;99.90
36924;DHT22;22841;50.252;18.688;2022-10-16T05:09:09;11.80;99.90
36924;DHT22;22841;50.252;18.688;2022-10-16T05:11:36;11.80;99.90
36924;DHT22;22841;50.252;18.688;2022-10-16T05:14:02;11.80;99.90
36924;DHT22;22841;50.252;18.688;2022-10-16T05:16:29;11.90;99.90
36924;DHT22;22841;50.252;18.688;2022-10-16T05:18:56;11.90;99.90
36924;DHT22;22841;50.252;18.688;2022-10-16T05:21:23;11.90;99.90
36924;DHT22;22841;50.252;18.688;2022-10-16T05:23:49;11.90;99.90
36924;DHT22;22841;50.252;18.688;2022-10-16T05:26:15;11.90;99.90
36924;DHT22;22841;50.252;18.688;2022-10-16T05:28:41;11.90;99.90
36924;DHT22;22841;50.252;18.688;2022-10-16T05:31:09;11.90;99.90
36924;DHT22;22841;50.252;18.688;2022-10-16T05:33:35;11.90;99.90
36924;DHT22;22841;50.252;18.688;2022-10-16T05:36:03;12.00;99.90
36924;DHT22;22841;50.252;18.688;2022-10-16T05:38:30;11.90;99.90
36924;DHT22;22841;50.252;18.688;2022-10-16T05:40:56;11.80;99.90
36924;DHT22;22841;50.252;18.688;2022-10-16T05:43:22;11.80;99.90
36924;DHT22;22841;50.252;18.688;2022-10-16T05:46:03;11.80;99.90
36924;DHT22;22841;50.252;18.688;2022-10-16T05:48:30;11.90;99.90
36924;DHT22;22841;50.252;18.688;2022-10-16T05:51:04;11.90;99.90
36924;DHT22;22841;50.252;18.688;2022-10-16T05:53:34;11.90;99.90
36924;DHT22;22841;50.252;18.688;2022-10-16T05:56:00;11.90;99.90
36924;DHT22;22841;50.252;18.688;2022-10-16T05:58:35;12.00;99.90
36924;DHT22;22841;50.252;18.688;2022-10-16T06:01:06;12.00;99.90
36924;DHT22;22841;50.252;18.688;2022-10-16T06:03:34;12.00;99.90
36924;DHT22;22841;50.252;18.688;2022-10-16T06:06:10;12.00;99.90
36924;DHT22;22841;50.252;18.688;2022-10-16T06:08:38;12.00;99.90
36924;DHT22;22841;50.252;18.688;2022-10-16T06:11:06;12.00;99.90
36924;DHT22;22841;50.252;18.688;2022-10-16T06:13:33;12.00;99.90
36924;DHT22;22841;50.252;18.688;2022-10-16T06:16:00;12.00;99.90
36924;DHT22;22841;50.252;18.688;2022-10-16T06:18:27;12.10;99.90
36924;DHT22;22841;50.252;18.688;2022-10-16T06:20:54;12.10;99.90
36924;DHT22;22841;50.252;18.688;2022-10-16T06:23:20;12.10;99.90
36924;DHT22;22841;50.252;18.688;2022-10-16T06:25:47;12.20;99.90
36924;DHT22;22841;50.252;18.688;2022-10-16T06:28:14;12.20;99.90
36924;DHT22;22841;50.252;18.688;2022-10-16T06:30:41;12.30;99.90
36924;DHT22;22841;50.252;18.688;2022-10-16T06:33:10;12.40;99.90
36924;DHT22;22841;50.252;18.688;2022-10-16T06:35:37;12.50;99.90
36924;DHT22;22841;50.252;18.688;2022-10-16T06:38:03;12.60;99.90
36924;DHT22;22841;50.252;18.688;2022-10-16T06:40:31;12.60;99.90
36924;DHT22;22841;50.252;18.688;2022-10-16T06:42:57;12.70;99.90
36924;DHT22;22841;50.252;18.688;2022-10-16T06:45:23;12.70;99.90
36924;DHT22;22841;50.252;18.688;2022-10-16T06:47:49;12.80;99.80
36924;DHT22;22841;50.252;18.688;2022-10-16T06:50:15;12.90;96.40
36924;DHT22;22841;50.252;18.688;2022-10-16T06:52:41;13.00;95.50
36924;DHT22;22841;50.252;18.688;2022-10-16T06:55:07;13.00;96.40
36924;DHT22;22841;50.252;18.688;2022-10-16T06:57:34;13.10;95.30
36924;DHT22;22841;50.252;18.688;2022-10-16T07:00:00;13.20;94.10
36924;DHT22;22841;50.252;18.688;2022-10-16T07:02:27;13.30;92.50
36924;DHT22;22841;50.252;18.688;2022-10-16T07:04:53;13.40;91.60
36924;DHT22;22841;50.252;18.688;2022-10-16T07:07:19;13.50;90.70
36924;DHT22;22841;50.252;18.688;2022-10-16T07:09:45;13.50;91.60
36924;DHT22;22841;50.252;18.688;2022-10-16T07:12:11;13.50;79.10
36924;DHT22;22841;50.252;18.688;2022-10-16T07:14:38;13.50;82.60
36924;DHT22;22841;50.252;18.688;2022-10-16T07:17:04;13.60;88.40
36924;DHT22;22841;50.252;18.688;2022-10-16T07:19:30;13.60;74.70
36924;DHT22;22841;50.252;18.688;2022-10-16T07:21:56;13.70;71.90
36924;DHT22;22841;50.252;18.688;2022-10-16T07:24:22;13.80;62.40
36924;DHT22;22841;50.252;18.688;2022-10-16T07:26:49;13.90;63.50
36924;DHT22;22841;50.252;18.688;2022-10-16T07:29:18;14.10;55.60
36924;DHT22;22841;50.252;18.688;2022-10-16T07:31:45;14.20;32.80
36924;DHT22;22841;50.252;18.688;2022-10-16T07:34:12;14.30;15.70
36924;DHT22;22841;50.252;18.688;2022-10-16T07:36:39;14.30;14.30
36924;DHT22;22841;50.252;18.688;2022-10-16T07:39:05;14.30;27.00
36924;DHT22;22841;50.252;18.688;2022-10-16T07:41:32;14.30;30.00
36924;DHT22;22841;50.252;18.688;2022-10-16T07:43:59;14.40;14.60
36924;DHT22;22841;50.252;18.688;2022-10-16T07:46:26;14.40;30.00
36924;DHT22;22841;50.252;18.688;2022-10-16T07:48:52;14.40;5.80
36924;DHT22;22841;50.252;18.688;2022-10-16T07:51:21;14.50;26.60
36924;DHT22;22841;50.252;18.688;2022-10-16T07:53:48;14.50;26.20
36924;DHT22;22841;50.252;18.688;2022-10-16T07:56:15;14.50;31.50
36924;DHT22;22841;50.252;18.688;2022-10-16T07:58:43;14.60;51.00
36924;DHT22;22841;50.252;18.688;2022-10-16T08:01:13;14.60;20.50
36924;DHT22;22841;50.252;18.688;2022-10-16T08:03:42;14.70;1.40
36924;DHT22;22841;50.252;18.688;2022-10-16T08:06:10;14.70;1.00
36924;DHT22;22841;50.252;18.688;2022-10-16T08:08:36;14.70;1.00
36924;DHT22;22841;50.252;18.688;2022-10-16T08:11:02;14.80;1.00
36924;DHT22;22841;50.252;18.688;2022-10-16T08:13:31;14.80;1.00
36924;DHT22;22841;50.252;18.688;2022-10-16T08:15:58;14.90;1.00
36924;DHT22;22841;50.252;18.688;2022-10-16T08:18:25;15.00;18.80
36924;DHT22;22841;50.252;18.688;2022-10-16T08:20:58;15.30;1.00
36924;DHT22;22841;50.252;18.688;2022-10-16T08:23:26;15.40;1.00
36924;DHT22;22841;50.252;18.688;2022-10-16T08:25:55;15.60;1.00
36924;DHT22;22841;50.252;18.688;2022-10-16T08:28:22;15.80;1.00
36924;DHT22;22841;50.252;18.688;2022-10-16T08:30:48;16.00;99.90
36924;DHT22;22841;50.252;18.688;2022-10-16T08:33:14;16.10;99.90
36924;DHT22;22841;50.252;18.688;2022-10-16T08:35:41;16.00;99.90
36924;DHT22;22841;50.252;18.688;2022-10-16T08:38:07;16.00;99.90
36924;DHT22;22841;50.252;18.688;2022-10-16T08:40:36;15.90;99.90
36924;DHT22;22841;50.252;18.688;2022-10-16T08:43:10;15.80;99.90
36924;DHT22;22841;50.252;18.688;2022-10-16T08:53:49;16.00;99.90
36924;DHT22;22841;50.252;18.688;2022-10-16T08:56:17;16.10;99.90
36924;DHT22;22841;50.252;18.688;2022-10-16T08:58:45;16.20;99.90
36924;DHT22;22841;50.252;18.688;2022-10-16T09:01:17;16.30;99.90
36924;DHT22;22841;50.252;18.688;2022-10-16T09:04:42;16.40;99.90
36924;DHT22;22841;50.252;18.688;2022-10-16T09:07:40;16.70;99.90
36924;DHT22;22841;50.252;18.688;2022-10-16T09:10:38;16.70;99.90
36924;DHT22;22841;50.252;18.688;2022-10-16T09:13:19;16.80;99.90
36924;DHT22;22841;50.252;18.688;2022-10-16T09:16:19;16.80;99.90
36924;DHT22;22841;50.252;18.688;2022-10-16T09:19:13;16.90;12.10
36924;DHT22;22841;50.252;18.688;2022-10-16T09:21:44;17.10;99.90
36924;DHT22;22841;50.252;18.688;2022-10-16T09:24:16;17.30;7.70
36924;DHT22;22841;50.252;18.688;2022-10-16T09:26:43;17.50;95.10
36924;DHT22;22841;50.252;18.688;2022-10-16T09:29:12;17.50;1.00
36924;DHT22;22841;50.252;18.688;2022-10-16T09:31:39;17.40;1.00
36924;DHT22;22841;50.252;18.688;2022-10-16T09:34:06;17.30;99.90
36924;DHT22;22841;50.252;18.688;2022-10-16T09:36:43;17.20;37.60
36924;DHT22;22841;50.252;18.688;2022-10-16T09:39:11;17.20;99.90
36924;DHT22;22841;50.252;18.688;2022-10-16T09:41:40;17.20;99.90
36924;DHT22;22841;50.252;18.688;2022-10-16T09:44:25;17.30;14.70
36924;DHT22;22841;50.252;18.688;2022-10-16T09:47:12;17.50;99.90
36924;DHT22;22841;50.252;18.688;2022-10-16T09:49:54;17.60;12.80
36924;DHT22;22841;50.252;18.688;2022-10-16T09:52:22;17.60;5.20
36924;DHT22;22841;50.252;18.688;2022-10-16T09:54:57;17.60;1.00
36924;DHT22;22841;50.252;18.688;2022-10-16T09:57:24;17.60;99.90
36924;DHT22;22841;50.252;18.688;2022-10-16T09:59:55;17.60;99.90
36924;DHT22;22841;50.252;18.688;2022-10-16T10:02:35;17.60;99.90
36924;DHT22;22841;50.252;18.688;2022-10-16T10:05:02;17.60;1.00
36924;DHT22;22841;50.252;18.688;2022-10-16T10:07:32;17.60;1.00
36924;DHT22;22841;50.252;18.688;2022-10-16T10:10:00;17.60;1.00
36924;DHT22;22841;50.252;18.688;2022-10-16T10:12:31;17.70;99.90
36924;DHT22;22841;50.252;18.688;2022-10-16T10:15:06;17.70;99.90
36924;DHT22;22841;50.252;18.688;2022-10-16T10:17:32;17.70;99.90
36924;DHT22;22841;50.252;18.688;2022-10-16T10:20:00;17.70;2.30
36924;DHT22;22841;50.252;18.688;2022-10-16T10:22:40;17.60;99.90
36924;DHT22;22841;50.252;18.688;2022-10-16T10:33:39;17.40;1.00
36924;DHT22;22841;50.252;18.688;2022-10-16T10:36:18;17.40;1.00
36924;DHT22;22841;50.252;18.688;2022-10-16T10:49:07;17.50;1.00
36924;DHT22;22841;50.252;18.688;2022-10-16T10:54:22;17.60;99.90
36924;DHT22;22841;50.252;18.688;2022-10-16T10:56:59;17.60;99.90
36924;DHT22;22841;50.252;18.688;2022-10-16T10:59:43;17.50;99.90
36924;DHT22;22841;50.252;18.688;2022-10-16T11:02:42;17.60;1.00
36924;DHT22;22841;50.252;18.688;2022-10-16T11:10:57;17.70;36.00
36924;DHT22;22841;50.252;18.688;2022-10-16T11:16:28;17.80;99.90
36924;DHT22;22841;50.252;18.688;2022-10-16T11:19:48;17.80;12.40
36924;DHT22;22841;50.252;18.688;2022-10-16T11:25:02;17.70;99.90
36924;DHT22;22841;50.252;18.688;2022-10-16T11:27:37;17.70;36.70
36924;DHT22;22841;50.252;18.688;2022-10-16T11:30:12;17.70;99.90
36924;DHT22;22841;50.252;18.688;2022-10-16T11:37:57;17.60;99.90
36924;DHT22;22841;50.252;18.688;2022-10-16T11:40:33;17.60;1.00
36924;DHT22;22841;50.252;18.688;2022-10-16T11:43:26;17.70;70.00
36924;DHT22;22841;50.252;18.688;2022-10-16T11:45:55;17.70;1.00
36924;DHT22;22841;50.252;18.688;2022-10-16T11:48:30;17.70;99.90
36924;DHT22;22841;50.252;18.688;2022-10-16T11:51:14;17.70;99.90
36924;DHT22;22841;50.252;18.688;2022-10-16T11:53:53;17.70;99.90
36924;DHT22;22841;50.252;18.688;2022-10-16T11:56:21;17.80;1.00
36924;DHT22;22841;50.252;18.688;2022-10-16T11:59:01;17.90;1.00
36924;DHT22;22841;50.252;18.688;2022-10-16T12:01:53;18.10;1.00
36924;DHT22;22841;50.252;18.688;2022-10-16T12:05:11;18.30;1.00
36924;DHT22;22841;50.252;18.688;2022-10-16T12:07:19;18.50;99.90
36924;DHT22;22841;50.252;18.688;2022-10-16T12:09:47;18.50;99.90
36924;DHT22;22841;50.252;18.688;2022-10-16T12:12:28;18.40;1.00
36924;DHT22;22841;50.252;18.688;2022-10-16T12:15:19;18.40;99.90
36924;DHT22;22841;50.252;18.688;2022-10-16T12:17:46;18.40;11.10
36924;DHT22;22841;50.252;18.688;2022-10-16T12:23:04;18.50;99.90
36924;DHT22;22841;50.252;18.688;2022-10-16T12:28:00;18.50;63.70
36924;DHT22;22841;50.252;18.688;2022-10-16T12:30:30;18.40;63.90
36924;DHT22;22841;50.252;18.688;2022-10-16T12:33:02;18.30;79.50
36924;DHT22;22841;50.252;18.688;2022-10-16T12:35:35;18.10;1.00
36924;DHT22;22841;50.252;18.688;2022-10-16T12:40:43;18.10;99.90
36924;DHT22;22841;50.252;18.688;2022-10-16T12:43:36;18.00;99.90
36924;DHT22;22841;50.252;18.688;2022-10-16T12:46:20;17.90;99.90
36924;DHT22;22841;50.252;18.688;2022-10-16T12:48:47;17.80;99.90
36924;DHT22;22841;50.252;18.688;2022-10-16T12:54:04;17.80;99.90
36924;DHT22;22841;50.252;18.688;2022-10-16T13:05:42;17.90;40.60
36924;DHT22;22841;50.252;18.688;2022-10-16T13:13:50;18.20;99.90
36924;DHT22;22841;50.252;18.688;2022-10-16T13:17:06;18.40;99.00
36924;DHT22;22841;50.252;18.688;2022-10-16T13:22:11;18.40;1.00
36924;DHT22;22841;50.252;18.688;2022-10-16T13:25:16;18.40;99.90
36924;DHT22;22841;50.252;18.688;2022-10-16T13:28:10;18.40;99.90
36924;DHT22;22841;50.252;18.688;2022-10-16T13:30:57;18.40;90.70
36924;DHT22;22841;50.252;18.688;2022-10-16T13:33:35;18.30;41.30
36924;DHT22;22841;50.252;18.688;2022-10-16T13:36:03;18.20;99.90
36924;DHT22;22841;50.252;18.688;2022-10-16T13:38:35;18.10;99.90
36924;DHT22;22841;50.252;18.688;2022-10-16T13:43:35;18.00;99.90
36924;DHT22;22841;50.252;18.688;2022-10-16T13:46:11;18.10;67.30
36924;DHT22;22841;50.252;18.688;2022-10-16T13:48:38;18.10;1.00
36924;DHT22;22841;50.252;18.688;2022-10-16T13:51:11;18.00;99.90
36924;DHT22;22841;50.252;18.688;2022-10-16T13:53:38;18.10;1.00
36924;DHT22;22841;50.252;18.688;2022-10-16T13:56:10;18.30;99.90
36924;DHT22;22841;50.252;18.688;2022-10-16T13:58:36;18.40;1.00
36924;DHT22;22841;50.252;18.688;2022-10-16T14:01:24;18.50;89.40
36924;DHT22;22841;50.252;18.688;2022-10-16T14:03:51;18.60;99.90
36924;DHT22;22841;50.252;18.688;2022-10-16T14:06:21;18.70;99.90
36924;DHT22;22841;50.252;18.688;2022-10-16T14:09:22;18.80;99.90
36924;DHT22;22841;50.252;18.688;2022-10-16T14:11:48;18.90;99.90
36924;DHT22;22841;50.252;18.688;2022-10-16T14:14:15;18.90;99.90
36924;DHT22;22841;50.252;18.688;2022-10-16T14:16:43;18.90;92.10
36924;DHT22;22841;50.252;18.688;2022-10-16T14:19:22;18.90;1.00
36924;DHT22;22841;50.252;18.688;2022-10-16T14:21:51;18.80;99.90
36924;DHT22;22841;50.252;18.688;2022-10-16T14:24:26;18.90;1.00
36924;DHT22;22841;50.252;18.688;2022-10-16T14:26:53;18.80;99.90
36924;DHT22;22841;50.252;18.688;2022-10-16T14:29:23;18.80;1.00
36924;DHT22;22841;50.252;18.688;2022-10-16T14:31:59;18.80;99.90
36924;DHT22;22841;50.252;18.688;2022-10-16T14:34:37;18.80;99.90
36924;DHT22;22841;50.252;18.688;2022-10-16T14:37:13;18.70;99.90
36924;DHT22;22841;50.252;18.688;2022-10-16T14:39:40;18.70;99.90
36924;DHT22;22841;50.252;18.688;2022-10-16T14:42:16;18.70;99.90
36924;DHT22;22841;50.252;18.688;2022-10-16T14:44:43;18.70;99.90
36924;DHT22;22841;50.252;18.688;2022-10-16T14:47:13;18.80;58.40
36924;DHT22;22841;50.252;18.688;2022-10-16T14:49:41;18.70;99.90
36924;DHT22;22841;50.252;18.688;2022-10-16T14:52:11;18.70;99.90
36924;DHT22;22841;50.252;18.688;2022-10-16T14:54:38;18.70;99.90
36924;DHT22;22841;50.252;18.688;2022-10-16T14:57:04;18.60;1.00
36924;DHT22;22841;50.252;18.688;2022-10-16T14:59:37;18.60;82.80
36924;DHT22;22841;50.252;18.688;2022-10-16T15:02:26;18.50;99.90
36924;DHT22;22841;50.252;18.688;2022-10-16T15:04:53;18.40;99.90
36924;DHT22;22841;50.252;18.688;2022-10-16T15:07:19;18.30;99.90
36924;DHT22;22841;50.252;18.688;2022-10-16T15:09:46;18.20;99.90
36924;DHT22;22841;50.252;18.688;2022-10-16T15:12:12;18.10;99.90
36924;DHT22;22841;50.252;18.688;2022-10-16T15:14:39;18.00;99.90
36924;DHT22;22841;50.252;18.688;2022-10-16T15:17:05;17.90;1.00
36924;DHT22;22841;50.252;18.688;2022-10-16T15:19:31;17.80;99.90
36924;DHT22;22841;50.252;18.688;2022-10-16T15:21:57;17.70;99.90
36924;DHT22;22841;50.252;18.688;2022-10-16T15:24:24;17.60;99.90
36924;DHT22;22841;50.252;18.688;2022-10-16T15:26:50;17.50;99.90
36924;DHT22;22841;50.252;18.688;2022-10-16T15:29:16;17.40;99.90
36924;DHT22;22841;50.252;18.688;2022-10-16T15:31:42;17.30;99.90
36924;DHT22;22841;50.252;18.688;2022-10-16T15:34:09;17.30;1.00
36924;DHT22;22841;50.252;18.688;2022-10-16T15:36:37;17.20;1.00
36924;DHT22;22841;50.252;18.688;2022-10-16T15:39:25;17.20;11.90
36924;DHT22;22841;50.252;18.688;2022-10-16T15:41:50;17.00;87.10
36924;DHT22;22841;50.252;18.688;2022-10-16T15:44:19;17.00;99.90
36924;DHT22;22841;50.252;18.688;2022-10-16T15:46:46;16.90;99.90
36924;DHT22;22841;50.252;18.688;2022-10-16T15:49:13;16.90;99.90
36924;DHT22;22841;50.252;18.688;2022-10-16T15:51:41;16.80;99.90
36924;DHT22;22841;50.252;18.688;2022-10-16T15:54:07;16.70;99.90
36924;DHT22;22841;50.252;18.688;2022-10-16T15:56:34;16.60;99.90
36924;DHT22;22841;50.252;18.688;2022-10-16T15:59:03;16.50;99.90
36924;DHT22;22841;50.252;18.688;2022-10-16T16:01:35;16.50;99.90
36924;DHT22;22841;50.252;18.688;2022-10-16T16:04:01;16.40;99.90
36924;DHT22;22841;50.252;18.688;2022-10-16T16:06:27;16.30;99.90
36924;DHT22;22841;50.252;18.688;2022-10-16T16:08:54;16.20;99.90
36924;DHT22;22841;50.252;18.688;2022-10-16T16:11:20;16.10;99.90
36924;DHT22;22841;50.252;18.688;2022-10-16T16:13:48;16.00;99.90
36924;DHT22;22841;50.252;18.688;2022-10-16T16:16:16;15.90;1.00
36924;DHT22;22841;50.252;18.688;2022-10-16T16:18:43;15.90;1.00
36924;DHT22;22841;50.252;18.688;2022-10-16T16:21:13;15.80;1.00
36924;DHT22;22841;50.252;18.688;2022-10-16T16:23:39;15.80;1.00
36924;DHT22;22841;50.252;18.688;2022-10-16T16:28:33;15.80;1.00
36924;DHT22;22841;50.252;18.688;2022-10-16T16:30:59;15.80;1.00
36924;DHT22;22841;50.252;18.688;2022-10-16T16:33:25;15.70;1.00
36924;DHT22;22841;50.252;18.688;2022-10-16T16:35:59;15.80;1.00
36924;DHT22;22841;50.252;18.688;2022-10-16T16:38:26;15.80;1.00
36924;DHT22;22841;50.252;18.688;2022-10-16T16:40:52;15.70;1.00
36924;DHT22;22841;50.252;18.688;2022-10-16T16:43:22;15.70;1.00
36924;DHT22;22841;50.252;18.688;2022-10-16T16:45:48;15.70;1.00
36924;DHT22;22841;50.252;18.688;2022-10-16T16:48:14;15.70;1.00
36924;DHT22;22841;50.252;18.688;2022-10-16T16:50:41;15.70;1.00
36924;DHT22;22841;50.252;18.688;2022-10-16T16:53:07;15.70;1.00
36924;DHT22;22841;50.252;18.688;2022-10-16T16:55:33;15.60;1.00
36924;DHT22;22841;50.252;18.688;2022-10-16T16:57:59;15.70;1.00
36924;DHT22;22841;50.252;18.688;2022-10-16T17:00:26;15.60;1.00
36924;DHT22;22841;50.252;18.688;2022-10-16T17:02:52;15.60;1.00
36924;DHT22;22841;50.252;18.688;2022-10-16T17:05:18;15.60;1.00
36924;DHT22;22841;50.252;18.688;2022-10-16T17:07:44;15.60;1.00
36924;DHT22;22841;50.252;18.688;2022-10-16T17:10:10;15.60;1.00
36924;DHT22;22841;50.252;18.688;2022-10-16T17:12:36;15.60;1.00
36924;DHT22;22841;50.252;18.688;2022-10-16T17:15:02;15.60;1.00